Deer Lodge, MT

10:18 PM MST on February 10, 2016 (GMT -0700)
MesoWest | | Change Station
CLOSE
Current Station
Personal Weather Station
Location: Deer Lodge, MT
Elevation: 4678 ft
Nearby Weather Stations

Elev 4678 ft 46.34 °N, 112.77 °W | Updated 1 hour ago

Clear
Clear
31.0 °F
Feels Like 31.0 °F
N
3.0
Wind Variable Wind from WSW
Gusts 6.0 mph

Today
High -- | Low -- °F
--% Chance of Precip.
Yesterday
High -- | Low -- °F
Precip. -- in
Pressure 30.41 in
Visibility 8.0 miles
Clouds Clear
Dew Point 28.0 °F
Humidity 87%
Rainfall in
Snow Depth Not available.
7:42 AM 5:48 PM
Waxing Crescent, 9% visible
METAR KBTM 110453Z AUTO 14005KT 8SM CLR M04/M07 A3021 RMK AO2 SLP298 T10441072
Pressure 30.41 in
Visibility 8.0 miles
Clouds Clear
Dew Point 28.0 °F
Humidity 87%
Rainfall in
Snow Depth Not available.
7:42 AM 5:48 PM
Waxing Crescent, 9% visible
METAR KBTM 110453Z AUTO 14005KT 8SM CLR M04/M07 A3021 RMK AO2 SLP298 T10441072

10-Day Weather Forecast

Almanac

Astronomy

Feb. 10, 2016 Rise Set
Actual Time
Civil Twilight
Nautical Twilight
Astronomical Twilight
Moon
Length of Visible Light
Length of Day
Tomorrow will be .
, % of the Moon is Illuminated

Today's Extremes

State Highs State Lows

Community

WunderPhotos

Upload Photos

1,892,023 photos uploaded!

WunderBlog® & News

Nearby

Air Quality

  Air Quality AQ Index Pollutant
Not available.

Snow Depth

Station Depth Elevation

Earthquake Activity

City Distance Mag. Time & Date
Minimum magnitude displayed is 2.5.

Coastal Water Temperatures

Place Temperature

Stations

Nearby Weather Stations

Station Location Temp. Windchill Dew Point Humidity Wind Precip. Elev Updated Type
                   

Watches & Warnings

There are currently no watches in effect.